Time;durP1;ratioP1;P1;durP2;ratioP2;P2;SDS_P1;SDS_P2;PMS_P1;PMS_P2;Temp;Humidity;BMP_temperature;BMP_pressure;BME280_temperature;BME280_humidity;BME280_pressure;Samples;Min_cycle;Max_cycle;Signal;HPM_P1;HPM_P2
2022/07/09 00:00:11;;;;;;;3.25;1.05;;;22.50;67.30;;;;;;5034562;28;20037;-63
2022/07/09 00:02:37;;;;;;;3.25;1.08;;;22.50;67.40;;;;;;5034996;28;20504;-63
2022/07/09 00:05:03;;;;;;;4.03;1.20;;;22.40;67.20;;;;;;5035042;28;20136;-63
2022/07/09 00:07:28;;;;;;;3.78;1.13;;;22.50;67.30;;;;;;5034455;28;20050;-63
2022/07/09 00:09:54;;;;;;;2.22;1.13;;;22.50;67.30;;;;;;5035007;28;20465;-63
2022/07/09 00:12:19;;;;;;;3.22;1.27;;;22.40;67.20;;;;;;5035329;28;20082;-63
2022/07/09 00:14:45;;;;;;;2.47;1.10;;;22.50;67.30;;;;;;5032529;28;20052;-63
2022/07/09 00:17:10;;;;;;;3.35;1.10;;;22.50;67.30;;;;;;5034921;28;20478;-63
2022/07/09 00:19:36;;;;;;;3.80;1.10;;;22.40;67.20;;;;;;5034910;28;20045;-63
2022/07/09 00:22:02;;;;;;;3.08;1.05;;;22.40;67.20;;;;;;5033904;28;20041;-63
2022/07/09 00:24:27;;;;;;;3.15;1.15;;;22.40;67.50;;;;;;5035172;28;20113;-63
2022/07/09 00:26:53;;;;;;;3.90;1.08;;;22.40;67.20;;;;;;5034501;28;20410;-64
2022/07/09 00:29:18;;;;;;;2.63;1.00;;;22.40;67.20;;;;;;5033956;28;20482;-63
2022/07/09 00:31:45;;;;;;;3.63;1.00;;;22.40;67.20;;;;;;5034511;28;20535;-63
2022/07/09 00:34:11;;;;;;;4.03;1.20;;;22.40;67.80;;;;;;5034770;28;20405;-63
2022/07/09 00:36:37;;;;;;;4.53;1.55;;;22.40;67.20;;;;;;5034017;28;20037;-63
2022/07/09 00:39:02;;;;;;;1.98;0.88;;;22.40;67.20;;;;;;5034749;28;20041;-63
2022/07/09 00:41:28;;;;;;;2.38;0.90;;;22.40;67.20;;;;;;5034918;28;20069;-63
2022/07/09 00:43:53;;;;;;;2.20;1.10;;;22.40;67.10;;;;;;5033638;28;20397;-63
2022/07/09 00:46:19;;;;;;;2.03;1.17;;;22.40;67.10;;;;;;5034855;28;20049;-63
2022/07/09 00:48:45;;;;;;;2.28;1.10;;;22.40;67.10;;;;;;5034124;28;20409;-63
2022/07/09 00:51:14;;;;;;;3.63;1.23;;;22.40;67.20;;;;;;5033836;28;20050;-63
2022/07/09 00:53:40;;;;;;;2.47;0.90;;;22.40;67.10;;;;;;5033243;28;20038;-63
2022/07/09 00:56:06;;;;;;;3.15;1.20;;;22.40;67.10;;;;;;5033434;28;20056;-63
2022/07/09 00:58:32;;;;;;;2.75;1.27;;;22.40;67.10;;;;;;5015732;28;20038;-63
2022/07/09 01:00:57;;;;;;;2.85;1.05;;;22.40;67.10;;;;;;5032654;28;20053;-63
2022/07/09 01:03:23;;;;;;;1.95;1.08;;;22.40;67.10;;;;;;5034248;28;20048;-63
2022/07/09 01:05:49;;;;;;;2.67;1.10;;;22.40;67.10;;;;;;5032853;28;20042;-64
2022/07/09 01:08:14;;;;;;;2.78;1.00;;;22.40;67.10;;;;;;5033117;28;20405;-64
2022/07/09 01:10:40;;;;;;;3.45;1.50;;;22.40;67.00;;;;;;5032194;28;20067;-64
2022/07/09 01:13:05;;;;;;;3.50;1.25;;;22.40;67.10;;;;;;5033079;28;20045;-63
2022/07/09 01:15:31;;;;;;;2.55;1.00;;;22.40;67.10;;;;;;5034234;28;20041;-63
2022/07/09 01:17:58;;;;;;;2.92;1.42;;;22.40;67.00;;;;;;5032819;28;20041;-63
2022/07/09 01:20:30;;;;;;;2.63;1.05;;;22.40;67.00;;;;;;5034016;28;20088;-63
2022/07/09 01:22:56;;;;;;;2.00;1.00;;;22.40;67.00;;;;;;5033766;28;20042;-63
2022/07/09 01:25:32;;;;;;;2.53;0.98;;;22.40;67.00;;;;;;5032860;28;20053;-63
2022/07/09 01:27:58;;;;;;;3.28;1.08;;;22.40;67.00;;;;;;5031977;28;20136;-63
2022/07/09 01:30:25;;;;;;;2.85;1.20;;;22.40;67.00;;;;;;5034015;28;20129;-63
2022/07/09 01:32:50;;;;;;;2.00;1.10;;;22.30;66.90;;;;;;5032678;28;20095;-63
2022/07/09 01:35:16;;;;;;;2.80;1.05;;;22.30;67.00;;;;;;5033883;28;20541;-63
2022/07/09 01:37:41;;;;;;;3.13;1.00;;;22.40;67.00;;;;;;5033520;28;20440;-63
2022/07/09 01:40:07;;;;;;;2.97;1.40;;;22.30;67.00;;;;;;5032702;28;20084;-63
2022/07/09 01:42:33;;;;;;;2.20;1.00;;;22.40;67.00;;;;;;5034003;28;20046;-63
2022/07/09 01:44:58;;;;;;;2.05;1.10;;;22.30;66.90;;;;;;5033196;28;20750;-63
2022/07/09 01:47:24;;;;;;;3.15;1.30;;;22.30;67.00;;;;;;5032554;28;20045;-63
2022/07/09 01:49:49;;;;;;;2.67;1.10;;;22.30;67.00;;;;;;5033024;28;20147;-63
2022/07/09 01:52:15;;;;;;;2.08;1.20;;;22.30;66.90;;;;;;5033594;28;20038;-63
2022/07/09 01:54:41;;;;;;;2.65;1.00;;;22.30;66.90;;;;;;5032504;28;20042;-63
2022/07/09 01:57:06;;;;;;;1.70;0.90;;;22.30;66.90;;;;;;5033487;28;20041;-63
2022/07/09 01:59:32;;;;;;;2.33;1.10;;;22.30;66.90;;;;;;5032986;28;20034;-63
2022/07/09 02:01:57;;;;;;;2.45;1.05;;;22.30;66.90;;;;;;5032262;28;20120;-63
2022/07/09 02:04:23;;;;;;;2.20;1.00;;;22.30;66.90;;;;;;5033186;28;20068;-62
2022/07/09 02:06:48;;;;;;;3.15;1.20;;;22.30;66.90;;;;;;5031939;28;20397;-62
2022/07/09 02:09:14;;;;;;;2.83;1.05;;;22.30;66.80;;;;;;5033161;28;20413;-62
2022/07/09 02:11:39;;;;;;;2.10;0.90;;;22.30;66.80;;;;;;5032986;28;20041;-62
2022/07/09 02:14:05;;;;;;;3.13;1.00;;;22.30;66.90;;;;;;5032127;28;20061;-62
2022/07/09 02:16:30;;;;;;;2.00;0.82;;;22.20;66.80;;;;;;5032657;28;20057;-62
2022/07/09 02:18:56;;;;;;;2.70;1.08;;;22.30;66.90;;;;;;5032503;28;20060;-62
2022/07/09 02:21:21;;;;;;;2.47;1.20;;;22.30;66.90;;;;;;5032260;28;20049;-62
2022/07/09 02:23:48;;;;;;;1.80;0.90;;;22.30;66.80;;;;;;5032714;28;20124;-62
2022/07/09 02:26:14;;;;;;;2.47;0.98;;;22.30;66.90;;;;;;5032844;28;20091;-62
2022/07/09 02:28:40;;;;;;;2.13;1.00;;;22.30;66.90;;;;;;5031521;28;20124;-62
2022/07/09 02:31:05;;;;;;;1.92;1.00;;;22.20;66.80;;;;;;5032835;28;20043;-62
2022/07/09 02:33:31;;;;;;;3.35;1.38;;;22.20;66.80;;;;;;5032642;28;20042;-62
2022/07/09 02:35:56;;;;;;;1.65;0.98;;;22.20;66.80;;;;;;5031675;28;20053;-62
2022/07/09 02:38:22;;;;;;;3.22;1.08;;;22.20;66.80;;;;;;5030794;28;20045;-62
2022/07/09 02:40:48;;;;;;;1.67;1.00;;;22.20;66.80;;;;;;5032506;28;20053;-62
2022/07/09 02:43:13;;;;;;;3.22;1.05;;;22.20;66.80;;;;;;5031741;28;20401;-63
2022/07/09 02:45:39;;;;;;;2.05;1.00;;;22.20;66.80;;;;;;5032447;28;20045;-62
2022/07/09 02:48:05;;;;;;;2.38;1.10;;;22.20;66.70;;;;;;5032388;28;20041;-63
2022/07/09 02:50:30;;;;;;;4.35;1.40;;;22.20;66.70;;;;;;5031909;28;20037;-63
2022/07/09 02:52:56;;;;;;;2.10;1.00;;;22.20;67.30;;;;;;5030943;28;20124;-63
2022/07/09 02:55:21;;;;;;;3.05;1.02;;;22.20;66.70;;;;;;5032592;28;20038;-63
2022/07/09 02:57:47;;;;;;;2.92;1.23;;;22.20;66.80;;;;;;5031344;28;20056;-63
2022/07/09 03:00:12;;;;;;;1.85;1.08;;;22.20;66.70;;;;;;5032432;28;20050;-63
2022/07/09 03:02:38;;;;;;;2.03;1.08;;;22.20;66.80;;;;;;5032820;28;20053;-63
2022/07/09 03:05:04;;;;;;;1.13;0.80;;;22.20;66.70;;;;;;5030052;28;20049;-63
2022/07/09 03:07:29;;;;;;;2.53;1.40;;;22.20;66.70;;;;;;5032735;28;20176;-63
2022/07/09 03:09:56;;;;;;;2.30;0.90;;;22.20;66.70;;;;;;5032185;28;20128;-63
2022/07/09 03:12:21;;;;;;;1.80;1.13;;;22.20;66.70;;;;;;5031500;28;20041;-63
2022/07/09 03:14:47;;;;;;;1.75;1.15;;;22.20;66.70;;;;;;5031703;28;20044;-62
2022/07/09 03:17:12;;;;;;;2.42;1.10;;;22.20;66.70;;;;;;5031335;28;20144;-63
2022/07/09 03:19:38;;;;;;;2.78;1.25;;;22.20;66.70;;;;;;5032454;28;20051;-63
2022/07/09 03:22:04;;;;;;;1.75;1.00;;;22.20;66.70;;;;;;5031830;28;20045;-62
2022/07/09 03:24:29;;;;;;;2.55;1.08;;;22.20;66.70;;;;;;5031688;28;20524;-62
2022/07/09 03:26:55;;;;;;;3.80;1.45;;;22.20;66.60;;;;;;5030424;28;20061;-62
2022/07/09 03:29:20;;;;;;;1.90;1.05;;;22.20;66.70;;;;;;5032208;28;20088;-62
2022/07/09 03:31:46;;;;;;;1.58;0.93;;;22.20;66.70;;;;;;5030771;28;20045;-62
2022/07/09 03:34:12;;;;;;;2.92;1.13;;;22.10;66.60;;;;;;5031170;28;20045;-62
2022/07/09 03:36:37;;;;;;;1.55;0.95;;;22.20;66.60;;;;;;5032279;28;20080;-62
2022/07/09 03:39:04;;;;;;;2.70;1.30;;;22.20;66.70;;;;;;5031049;28;20093;-62
2022/07/09 03:41:29;;;;;;;2.22;1.10;;;22.20;66.70;;;;;;5032010;28;20554;-63
2022/07/09 03:43:55;;;;;;;3.42;1.10;;;22.20;66.60;;;;;;5031514;28;20048;-63
2022/07/09 03:46:20;;;;;;;3.03;1.27;;;22.10;66.60;;;;;;5031366;28;20049;-62
2022/07/09 03:48:48;;;;;;;2.33;0.95;;;22.10;66.60;;;;;;5033480;28;20044;-62
2022/07/09 03:51:14;;;;;;;2.28;0.98;;;22.10;66.60;;;;;;5035778;28;20052;-62
2022/07/09 03:53:39;;;;;;;1.70;0.98;;;22.10;66.60;;;;;;5034941;28;20034;-62
2022/07/09 03:56:05;;;;;;;2.47;1.00;;;22.10;66.90;;;;;;5035212;28;20046;-62
2022/07/09 03:58:31;;;;;;;3.28;0.95;;;22.10;66.60;;;;;;5035625;28;20045;-62
2022/07/09 04:00:56;;;;;;;1.75;0.95;;;22.10;66.60;;;;;;5034166;28;20501;-62
2022/07/09 04:03:22;;;;;;;2.00;0.82;;;22.10;66.60;;;;;;5035538;28;20120;-62
2022/07/09 04:05:47;;;;;;;3.40;1.10;;;22.10;66.60;;;;;;5034623;28;20524;-62
2022/07/09 04:08:13;;;;;;;2.83;1.25;;;22.10;66.60;;;;;;5034320;28;20455;-62
2022/07/09 04:10:39;;;;;;;1.45;0.98;;;22.10;66.60;;;;;;5035462;28;20136;-62
2022/07/09 04:13:04;;;;;;;1.77;1.00;;;22.10;66.60;;;;;;5034956;28;20038;-62
2022/07/09 04:15:32;;;;;;;1.85;1.00;;;22.10;66.60;;;;;;5034464;28;20084;-62
2022/07/09 04:17:57;;;;;;;2.50;1.08;;;22.10;66.60;;;;;;5035130;28;20045;-62
2022/07/09 04:20:25;;;;;;;2.80;1.23;;;22.10;66.60;;;;;;5034292;28;20398;-62
2022/07/09 04:22:51;;;;;;;2.70;1.00;;;22.10;66.60;;;;;;5034801;28;20073;-62
2022/07/09 04:25:16;;;;;;;2.28;1.25;;;22.10;66.60;;;;;;5035055;28;20458;-62
2022/07/09 04:27:42;;;;;;;2.33;1.00;;;22.10;66.60;;;;;;5033789;28;20056;-62
2022/07/09 04:30:09;;;;;;;2.20;1.30;;;22.10;66.60;;;;;;5034578;28;20084;-62
2022/07/09 04:32:34;;;;;;;3.10;1.08;;;22.10;66.60;;;;;;5035125;28;20053;-63
2022/07/09 04:35:00;;;;;;;1.67;1.02;;;22.10;66.50;;;;;;5033983;28;20038;-63
2022/07/09 04:37:25;;;;;;;2.42;1.10;;;22.10;66.50;;;;;;5033746;28;20379;-63
2022/07/09 04:39:51;;;;;;;4.28;1.65;;;22.10;66.60;;;;;;5034584;28;20041;-63
2022/07/09 04:42:17;;;;;;;1.98;1.02;;;22.10;66.60;;;;;;5034055;28;20052;-63
2022/07/09 04:44:42;;;;;;;2.30;1.23;;;22.10;66.60;;;;;;5034392;28;20049;-63
2022/07/09 04:47:09;;;;;;;2.92;1.00;;;22.10;66.50;;;;;;5034595;28;20045;-63
2022/07/09 04:49:34;;;;;;;2.10;0.90;;;22.10;66.50;;;;;;5032670;28;20045;-63
2022/07/09 04:52:00;;;;;;;2.15;1.20;;;22.10;66.60;;;;;;5034350;28;20149;-63
2022/07/09 04:54:26;;;;;;;2.60;1.38;;;22.10;66.60;;;;;;5033238;28;20049;-63
2022/07/09 04:56:52;;;;;;;1.42;1.00;;;22.10;66.60;;;;;;5033646;28;20044;-62
2022/07/09 04:59:17;;;;;;;1.95;1.10;;;22.10;66.50;;;;;;5033557;28;20053;-61
2022/07/09 05:01:43;;;;;;;3.20;1.05;;;22.10;66.50;;;;;;5032322;28;20053;-61
2022/07/09 05:04:08;;;;;;;4.05;1.10;;;22.10;66.60;;;;;;5033691;28;20044;-62
2022/07/09 05:06:34;;;;;;;1.98;0.90;;;22.10;66.60;;;;;;5034450;28;20550;-61
2022/07/09 05:08:59;;;;;;;2.67;1.40;;;22.10;66.60;;;;;;5033204;28;20041;-62
2022/07/09 05:11:25;;;;;;;3.75;1.10;;;22.00;66.50;;;;;;5032682;28;20141;-62
2022/07/09 05:13:51;;;;;;;2.08;0.95;;;22.10;66.60;;;;;;5032394;28;20120;-62
2022/07/09 05:16:16;;;;;;;2.72;1.20;;;22.00;66.60;;;;;;5034309;28;20104;-62
2022/07/09 05:18:42;;;;;;;1.70;1.15;;;22.10;66.70;;;;;;5033089;28;20041;-62
2022/07/09 05:21:08;;;;;;;2.08;1.00;;;22.10;66.70;;;;;;5033955;28;20041;-62
2022/07/09 05:23:33;;;;;;;2.33;0.95;;;22.00;66.70;;;;;;5034181;28;20068;-63
2022/07/09 05:25:59;;;;;;;6.50;1.30;;;22.00;66.70;;;;;;5033174;28;20476;-63
2022/07/09 05:28:24;;;;;;;4.22;1.67;;;22.10;66.90;;;;;;5033984;28;20053;-64
2022/07/09 05:30:50;;;;;;;2.63;1.15;;;22.10;67.00;;;;;;5033376;28;20056;-63
2022/07/09 05:33:17;;;;;;;3.33;1.35;;;22.10;67.00;;;;;;5034588;28;20052;-65
2022/07/09 05:35:42;;;;;;;3.30;1.48;;;22.10;67.10;;;;;;5033698;28;20048;-63
2022/07/09 05:38:08;;;;;;;3.95;1.08;;;22.10;67.20;;;;;;5032663;28;20041;-64
2022/07/09 05:40:33;;;;;;;6.40;1.48;;;22.10;67.20;;;;;;5033667;28;20044;-63
2022/07/09 05:42:59;;;;;;;5.95;1.42;;;22.10;67.20;;;;;;5033250;28;20052;-63
2022/07/09 05:45:25;;;;;;;4.50;1.25;;;22.10;67.20;;;;;;5032649;28;20043;-64
2022/07/09 05:47:50;;;;;;;4.45;1.33;;;22.10;67.30;;;;;;5033151;28;20049;-64
2022/07/09 05:50:16;;;;;;;3.50;0.95;;;22.20;67.40;;;;;;5032046;28;20091;-63
2022/07/09 05:52:41;;;;;;;2.97;1.40;;;22.20;67.40;;;;;;5032642;28;20042;-64
2022/07/09 05:55:07;;;;;;;2.05;1.15;;;22.20;67.40;;;;;;5032880;28;20050;-64
2022/07/09 05:57:33;;;;;;;4.07;1.40;;;22.20;67.40;;;;;;5033330;28;20041;-63
2022/07/09 05:59:58;;;;;;;3.20;1.10;;;22.10;67.50;;;;;;5032147;28;20123;-64
2022/07/09 06:02:24;;;;;;;3.63;1.58;;;22.20;67.50;;;;;;5032171;28;20076;-63
2022/07/09 06:04:49;;;;;;;3.70;1.17;;;22.20;67.60;;;;;;5032661;28;20061;-64
2022/07/09 06:07:15;;;;;;;3.65;1.33;;;22.20;67.70;;;;;;5032603;28;20474;-63
2022/07/09 06:09:40;;;;;;;6.20;1.48;;;22.20;67.70;;;;;;5032946;28;20056;-63
2022/07/09 06:12:07;;;;;;;3.90;1.38;;;22.20;67.70;;;;;;5032607;28;20045;-62
2022/07/09 06:14:32;;;;;;;3.42;1.35;;;22.20;67.70;;;;;;5032132;28;20046;-62
2022/07/09 06:17:05;;;;;;;4.28;1.35;;;22.30;67.70;;;;;;5032320;28;20045;-62
2022/07/09 06:19:30;;;;;;;3.60;1.38;;;22.30;68.40;;;;;;5032697;28;20176;-62
2022/07/09 06:21:56;;;;;;;3.42;1.00;;;22.30;67.80;;;;;;5031766;28;20128;-62
2022/07/09 06:24:23;;;;;;;3.47;1.10;;;22.30;67.80;;;;;;5032998;28;20454;-63
2022/07/09 06:26:49;;;;;;;5.25;1.33;;;22.30;67.90;;;;;;5032069;28;20097;-62
2022/07/09 06:29:15;;;;;;;2.90;1.30;;;22.30;67.90;;;;;;5032018;28;20073;-62
2022/07/09 06:31:41;;;;;;;4.38;1.30;;;22.30;68.00;;;;;;5032455;28;20041;-62
2022/07/09 06:34:07;;;;;;;3.00;1.05;;;22.30;68.00;;;;;;5031967;28;20048;-63
2022/07/09 06:36:32;;;;;;;2.20;1.15;;;22.30;68.10;;;;;;5032708;28;20096;-63
2022/07/09 06:41:42;;;;;;;2.97;1.10;;;22.40;68.10;;;;;;5031364;28;20482;-64
2022/07/09 06:44:07;;;;;;;3.22;1.33;;;22.40;68.10;;;;;;5032487;28;20051;-63
2022/07/09 06:46:35;;;;;;;3.55;1.23;;;22.40;68.00;;;;;;5032448;28;20107;-62
2022/07/09 06:49:00;;;;;;;6.50;1.33;;;22.40;67.90;;;;;;5031429;28;20140;-65
2022/07/09 06:51:26;;;;;;;3.20;1.23;;;22.40;67.90;;;;;;5032690;28;20497;-63
2022/07/09 06:53:51;;;;;;;1.50;1.13;;;22.40;67.90;;;;;;5030999;28;20493;-63
2022/07/09 06:56:17;;;;;;;4.18;1.38;;;22.40;67.80;;;;;;5031867;28;20397;-63
2022/07/09 06:58:42;;;;;;;4.63;1.35;;;22.40;67.80;;;;;;5031718;28;20056;-62
2022/07/09 07:01:08;;;;;;;3.75;1.20;;;22.40;67.70;;;;;;5032161;28;20052;-63
2022/07/09 07:03:33;;;;;;;4.85;0.80;;;22.40;67.70;;;;;;5031387;28;20045;-63
2022/07/09 07:05:59;;;;;;;1.73;1.10;;;22.40;67.70;;;;;;5031621;28;20103;-63
2022/07/09 07:08:24;;;;;;;2.67;1.17;;;22.40;67.70;;;;;;5032438;28;20110;-63
2022/07/09 07:10:50;;;;;;;2.40;1.02;;;22.30;67.60;;;;;;5030847;28;20053;-63
2022/07/09 07:13:15;;;;;;;1.75;1.10;;;22.40;67.60;;;;;;5031992;28;20038;-63
2022/07/09 07:15:41;;;;;;;2.58;0.90;;;22.40;67.50;;;;;;5030858;28;20056;-63
2022/07/09 07:18:06;;;;;;;3.50;1.30;;;22.40;67.50;;;;;;5031475;28;20405;-63
2022/07/09 07:20:32;;;;;;;2.80;1.15;;;22.30;67.40;;;;;;5032013;28;20103;-64
2022/07/09 07:22:58;;;;;;;3.17;1.10;;;22.40;67.50;;;;;;5032231;28;20045;-63
2022/07/09 07:25:24;;;;;;;4.38;1.60;;;22.40;67.50;;;;;;5035065;28;20052;-63
2022/07/09 07:27:49;;;;;;;4.20;1.02;;;22.40;67.60;;;;;;5035281;28;20386;-63
2022/07/09 07:30:15;;;;;;;5.93;1.15;;;22.40;67.60;;;;;;5035509;28;20405;-64
2022/07/09 07:32:40;;;;;;;4.22;1.10;;;22.40;67.70;;;;;;5035404;28;20088;-62
2022/07/09 07:35:06;;;;;;;4.13;1.05;;;22.40;67.70;;;;;;5036110;28;20050;-64
2022/07/09 07:37:32;;;;;;;4.95;1.25;;;22.40;67.80;;;;;;5035211;28;20091;-63
2022/07/09 07:39:57;;;;;;;2.55;1.05;;;22.40;67.90;;;;;;5034948;28;20073;-63
2022/07/09 07:42:24;;;;;;;3.13;1.25;;;22.40;68.00;;;;;;5035203;28;20481;-63
2022/07/09 07:44:49;;;;;;;3.45;1.33;;;22.40;68.10;;;;;;5033833;28;20134;-63
2022/07/09 07:47:15;;;;;;;6.45;1.42;;;22.40;68.10;;;;;;5035130;28;20081;-63
2022/07/09 07:49:40;;;;;;;3.15;1.38;;;22.40;68.10;;;;;;5034999;28;20401;-63
2022/07/09 07:52:06;;;;;;;4.18;1.40;;;22.40;68.10;;;;;;5032317;28;20411;-63
2022/07/09 07:54:33;;;;;;;2.95;1.10;;;22.40;68.20;;;;;;5035404;28;20509;-63
2022/07/09 07:56:58;;;;;;;3.28;1.00;;;22.40;68.20;;;;;;5035156;28;20405;-64
2022/07/09 07:59:24;;;;;;;4.13;1.20;;;22.40;68.20;;;;;;5034921;28;20477;-63
2022/07/09 08:01:49;;;;;;;2.13;1.10;;;22.40;68.20;;;;;;5035068;28;20053;-64
2022/07/09 08:04:15;;;;;;;1.77;1.02;;;22.40;68.30;;;;;;5035922;28;20044;-64
2022/07/09 08:06:40;;;;;;;2.97;1.00;;;22.40;68.20;;;;;;5034679;28;20503;-63
2022/07/09 08:09:06;;;;;;;4.85;1.42;;;22.40;68.20;;;;;;5035346;28;20397;-62
2022/07/09 08:11:31;;;;;;;1.48;0.95;;;22.40;68.30;;;;;;5035408;28;20041;-62
2022/07/09 08:13:57;;;;;;;4.80;1.30;;;22.40;68.40;;;;;;5033859;28;20091;-63
2022/07/09 08:16:22;;;;;;;2.03;0.90;;;22.40;68.20;;;;;;5034208;28;20046;-62
2022/07/09 08:18:48;;;;;;;1.90;0.93;;;22.40;68.10;;;;;;5034296;28;20048;-62
2022/07/09 08:21:14;;;;;;;3.00;1.00;;;22.40;68.10;;;;;;5034223;28;20390;-63
2022/07/09 08:23:53;;;;;;;2.85;1.23;;;22.40;68.00;;;;;;5034868;28;20041;-62
2022/07/09 08:26:26;;;;;;;2.50;1.15;;;22.40;68.00;;;;;;5034328;28;20089;-62
2022/07/09 08:28:52;;;;;;;4.22;1.33;;;22.40;68.00;;;;;;5032743;28;20093;-62
2022/07/09 08:31:18;;;;;;;6.25;1.40;;;22.40;68.00;;;;;;5033516;28;20087;-62
2022/07/09 08:33:43;;;;;;;5.22;2.10;;;22.40;68.00;;;;;;5033359;28;20474;-62
2022/07/09 08:36:09;;;;;;;5.03;2.22;;;22.40;67.90;;;;;;5033523;28;20073;-62
2022/07/09 08:38:34;;;;;;;5.28;2.10;;;22.50;68.00;;;;;;5033390;28;20124;-62
2022/07/09 08:41:00;;;;;;;5.72;1.80;;;22.50;67.90;;;;;;5033468;28;20079;-62
2022/07/09 08:43:29;;;;;;;7.75;2.10;;;22.50;67.90;;;;;;5034510;28;20046;-62
2022/07/09 08:45:54;;;;;;;5.65;1.98;;;22.50;67.80;;;;;;5034231;28;20045;-62
2022/07/09 08:48:20;;;;;;;8.05;2.50;;;22.50;67.80;;;;;;5032315;28;20052;-62
2022/07/09 08:50:47;;;;;;;5.85;2.05;;;22.50;68.40;;;;;;5034382;28;20037;-62
2022/07/09 08:53:13;;;;;;;6.50;1.98;;;22.60;67.80;;;;;;5034241;28;20485;-62
2022/07/09 08:55:39;;;;;;;8.10;2.30;;;22.60;67.80;;;;;;5032612;28;20045;-63
2022/07/09 08:58:04;;;;;;;5.00;2.00;;;22.60;67.70;;;;;;5033218;28;20037;-62
2022/07/09 09:00:31;;;;;;;10.18;2.33;;;22.60;67.70;;;;;;5034147;28;20045;-62
2022/07/09 09:02:57;;;;;;;5.80;2.03;;;22.60;67.70;;;;;;5031530;28;20069;-63
2022/07/09 09:05:23;;;;;;;13.45;2.17;;;22.60;67.70;;;;;;5034308;28;20045;-61
2022/07/09 09:07:48;;;;;;;7.55;3.05;;;22.60;67.80;;;;;;5033419;28;20037;-61
2022/07/09 09:10:21;;;;;;;7.18;1.90;;;22.60;67.80;;;;;;5033292;28;20034;-64
2022/07/09 09:12:47;;;;;;;10.77;2.55;;;22.70;68.00;;;;;;5013922;28;20176;-62
2022/07/09 09:15:17;;;;;;;8.52;2.47;;;22.70;67.90;;;;;;5025933;28;20912;-62
2022/07/09 09:17:44;;;;;;;5.65;2.10;;;22.70;68.00;;;;;;5033007;28;20124;-62
2022/07/09 09:20:16;;;;;;;9.02;2.20;;;22.70;68.00;;;;;;5034215;28;20049;-62
2022/07/09 09:22:49;;;;;;;10.07;2.10;;;22.70;68.10;;;;;;5032936;28;20489;-62
2022/07/09 09:25:21;;;;;;;5.18;2.08;;;22.80;68.20;;;;;;5031801;28;20132;-61
2022/07/09 09:27:57;;;;;;;6.47;1.90;;;22.80;68.30;;;;;;5033214;28;20457;-62
2022/07/09 09:30:23;;;;;;;5.47;1.63;;;22.80;68.30;;;;;;5032871;28;20489;-62
2022/07/09 09:32:59;;;;;;;5.55;1.90;;;22.80;68.20;;;;;;5033690;28;20049;-61
2022/07/09 09:35:26;;;;;;;6.28;1.70;;;22.80;68.10;;;;;;5033827;28;20064;-61
2022/07/09 09:37:52;;;;;;;6.22;1.90;;;22.90;68.10;;;;;;5032570;28;20601;-61
2022/07/09 09:40:17;;;;;;;5.93;1.70;;;22.90;68.20;;;;;;5033551;28;20056;-61
2022/07/09 09:42:43;;;;;;;4.13;1.60;;;22.80;68.10;;;;;;5033480;28;20464;-61
2022/07/09 09:45:09;;;;;;;3.42;1.80;;;22.90;68.10;;;;;;5032652;28;20077;-61
2022/07/09 09:47:34;;;;;;;4.57;1.98;;;22.90;68.10;;;;;;5031599;28;20045;-61
2022/07/09 09:50:00;;;;;;;5.05;1.80;;;22.90;68.20;;;;;;5032963;28;20064;-62
2022/07/09 09:52:26;;;;;;;3.78;1.55;;;22.90;68.10;;;;;;5032704;28;20056;-61
2022/07/09 09:54:51;;;;;;;4.45;1.60;;;22.90;68.00;;;;;;5033130;28;20056;-61
2022/07/09 09:57:17;;;;;;;5.82;1.80;;;22.90;68.00;;;;;;5032301;28;20123;-62
2022/07/09 09:59:46;;;;;;;6.63;1.77;;;22.90;67.90;;;;;;5032339;28;20156;-63
2022/07/09 10:02:12;;;;;;;4.45;1.88;;;22.90;67.90;;;;;;5033398;28;20046;-62
2022/07/09 10:04:39;;;;;;;6.60;2.40;;;22.90;67.90;;;;;;5033043;28;20045;-61
2022/07/09 10:07:06;;;;;;;3.90;1.17;;;22.90;67.90;;;;;;5031338;28;20041;-61
2022/07/09 10:09:31;;;;;;;3.97;1.50;;;22.90;67.90;;;;;;5015126;28;20485;-61
2022/07/09 10:11:58;;;;;;;4.93;1.50;;;22.80;67.80;;;;;;5032942;28;20041;-61
2022/07/09 10:14:23;;;;;;;5.13;1.88;;;22.90;67.90;;;;;;5031988;28;20529;-61
2022/07/09 10:16:49;;;;;;;6.10;1.77;;;22.90;67.80;;;;;;5031158;28;20128;-61
2022/07/09 10:19:32;;;;;;;3.05;1.40;;;22.80;67.80;;;;;;5032356;28;20038;-61
2022/07/09 10:21:58;;;;;;;5.50;1.67;;;22.90;67.70;;;;;;5030254;28;20085;-61
2022/07/09 10:24:31;;;;;;;4.32;1.70;;;22.90;67.70;;;;;;5033014;28;20075;-61
2022/07/09 10:27:07;;;;;;;4.25;1.60;;;22.90;67.60;;;;;;5031645;28;20085;-62
2022/07/09 10:29:33;;;;;;;5.35;1.70;;;22.90;67.60;;;;;;5032779;28;20144;-61
2022/07/09 10:31:59;;;;;;;5.10;1.60;;;22.90;67.50;;;;;;5032392;28;20497;-61
2022/07/09 10:34:27;;;;;;;4.22;1.70;;;22.90;67.50;;;;;;5030827;28;20103;-61
2022/07/09 10:36:59;;;;;;;3.85;1.80;;;22.90;67.50;;;;;;5032615;28;20080;-62
2022/07/09 10:39:25;;;;;;;5.53;1.67;;;22.90;67.40;;;;;;5032913;28;20041;-62
2022/07/09 10:42:16;;;;;;;3.95;1.73;;;22.90;67.50;;;;;;5013815;28;20064;-62
2022/07/09 10:44:42;;;;;;;5.22;2.25;;;22.90;67.40;;;;;;5032449;28;20107;-62
2022/07/09 10:47:08;;;;;;;4.38;1.38;;;22.90;67.40;;;;;;5032674;28;20045;-62
2022/07/09 10:49:34;;;;;;;3.50;1.67;;;22.80;67.40;;;;;;5031846;28;20473;-61
2022/07/09 10:52:00;;;;;;;2.80;1.30;;;22.90;67.70;;;;;;5032345;28;20049;-61
2022/07/09 10:54:26;;;;;;;3.38;1.50;;;22.90;66.90;;;;;;5031636;28;20103;-61
2022/07/09 10:56:52;;;;;;;4.07;1.33;;;22.90;66.80;;;;;;5032119;28;20071;-62
2022/07/09 10:59:18;;;;;;;5.10;1.58;;;23.00;66.80;;;;;;5031541;28;20038;-61
2022/07/09 11:01:43;;;;;;;6.47;2.03;;;22.90;66.70;;;;;;5031350;28;20045;-60
2022/07/09 11:04:11;;;;;;;4.20;1.60;;;23.00;66.60;;;;;;5032523;28;20091;-61
2022/07/09 11:06:46;;;;;;;5.40;1.40;;;23.00;66.60;;;;;;5031237;28;20466;-61
2022/07/09 11:09:15;;;;;;;5.63;1.70;;;23.00;66.50;;;;;;5031510;28;20124;-62
2022/07/09 11:11:44;;;;;;;4.70;1.50;;;23.00;66.30;;;;;;5032260;28;20048;-62
2022/07/09 11:14:10;;;;;;;3.15;1.35;;;23.00;65.90;;;;;;5031931;28;20137;-62
2022/07/09 11:16:35;;;;;;;3.97;1.30;;;23.00;65.70;;;;;;5029481;28;20052;-62
2022/07/09 11:19:18;;;;;;;5.80;1.40;;;23.00;65.50;;;;;;5031624;28;20124;-62
2022/07/09 11:21:44;;;;;;;3.25;1.52;;;23.00;65.40;;;;;;5031410;28;20050;-61
2022/07/09 11:24:19;;;;;;;3.58;1.55;;;23.00;65.50;;;;;;5031473;28;20114;-61
2022/07/09 11:26:46;;;;;;;5.28;1.40;;;23.00;65.40;;;;;;5030548;28;20041;-62
2022/07/09 11:29:12;;;;;;;5.53;1.60;;;23.00;65.40;;;;;;5031825;28;20493;-62
2022/07/09 11:31:46;;;;;;;2.72;1.02;;;23.00;65.40;;;;;;5031133;28;20033;-64
2022/07/09 11:34:12;;;;;;;3.80;1.50;;;23.00;65.40;;;;;;5030905;28;20107;-61
2022/07/09 11:36:45;;;;;;;3.55;1.40;;;23.10;65.50;;;;;;5029939;28;20046;-63
2022/07/09 11:39:23;;;;;;;1.70;1.08;;;23.10;65.50;;;;;;5031884;28;20374;-62
2022/07/09 11:41:48;;;;;;;5.80;1.30;;;23.10;65.40;;;;;;5031826;28;20052;-62
2022/07/09 11:44:21;;;;;;;3.65;1.30;;;23.10;65.40;;;;;;5029925;28;20034;-62
2022/07/09 11:47:06;;;;;;;4.78;1.33;;;23.20;65.40;;;;;;5032033;28;20052;-62
2022/07/09 11:49:43;;;;;;;3.25;1.40;;;23.10;65.20;;;;;;5031723;28;20136;-62
2022/07/09 11:52:21;;;;;;;5.07;1.50;;;23.20;65.30;;;;;;5031388;28;20068;-62
2022/07/09 11:55:05;;;;;;;;;;;23.10;65.20;;;;;;5030655;28;20049;-62
2022/07/09 11:57:32;;;;;;;3.75;1.50;;;23.10;65.20;;;;;;5031693;28;19925;-62
2022/07/09 11:59:58;;;;;;;3.25;1.50;;;23.20;65.40;;;;;;5031020;28;20065;-62
2022/07/09 12:02:30;;;;;;;7.30;1.50;;;23.20;65.40;;;;;;5029217;28;20052;-62
2022/07/09 12:04:57;;;;;;;2.92;1.20;;;23.20;65.40;;;;;;5029472;28;20482;-62
2022/07/09 12:07:22;;;;;;;5.80;1.50;;;23.20;65.20;;;;;;5030712;28;20053;-60
2022/07/09 12:09:58;;;;;;;2.70;1.27;;;23.20;65.10;;;;;;5031522;28;20047;-60
2022/07/09 12:12:24;;;;;;;2.75;1.40;;;23.10;64.90;;;;;;5033837;28;20103;-61
2022/07/09 12:14:50;;;;;;;3.50;1.40;;;23.20;65.00;;;;;;5034162;28;20045;-61
2022/07/09 12:17:24;;;;;;;2.90;0.90;;;23.20;64.90;;;;;;5035213;28;20041;-62
2022/07/09 12:19:50;;;;;;;3.55;1.23;;;23.20;64.80;;;;;;5033222;28;20113;-61
2022/07/09 12:22:16;;;;;;;5.60;1.20;;;23.20;64.90;;;;;;5034203;28;20053;-60
2022/07/09 12:24:42;;;;;;;4.80;1.27;;;23.20;64.90;;;;;;5034459;28;20041;-60
2022/07/09 12:27:08;;;;;;;3.10;1.10;;;23.20;65.00;;;;;;5033492;28;20049;-61
2022/07/09 12:29:34;;;;;;;3.25;1.08;;;23.30;65.10;;;;;;5032276;28;20111;-61
2022/07/09 12:31:59;;;;;;;4.60;1.40;;;23.30;65.20;;;;;;5034081;28;20041;-63
2022/07/09 12:34:25;;;;;;;3.65;1.40;;;23.30;65.20;;;;;;5034046;28;20038;-63
2022/07/09 12:36:50;;;;;;;4.60;1.45;;;23.30;65.30;;;;;;5033100;28;20103;-62
2022/07/09 12:39:16;;;;;;;3.05;1.30;;;23.30;65.30;;;;;;5033583;28;20050;-61
2022/07/09 12:41:41;;;;;;;5.28;1.58;;;23.30;65.30;;;;;;5032232;28;20049;-62
2022/07/09 12:44:07;;;;;;;4.03;1.10;;;23.30;65.30;;;;;;5034286;28;20049;-64
2022/07/09 12:46:33;;;;;;;4.05;1.20;;;23.30;65.30;;;;;;5033504;28;20045;-62